Time;durP1;ratioP1;P1;durP2;ratioP2;P2;SDS_P1;SDS_P2;PMS_P1;PMS_P2;Temp;Humidity;BMP_temperature;BMP_pressure;BME280_temperature;BME280_humidity;BME280_pressure;Samples;Min_cycle;Max_cycle;Signal;HPM_P1;HPM_P2
2024/01/24 00:00:07;;;;;;;42.70;22.40;;;;;;;-142.57;100.00;55503.03;5034315;28;20022;-83
2024/01/24 00:02:39;;;;;;;44.13;22.10;;;;;;;-142.57;100.00;55507.06;5033557;28;20419;-84
2024/01/24 00:05:05;;;;;;;39.28;21.30;;;;;;;-142.57;100.00;55559.59;5022713;28;20033;-83
2024/01/24 00:07:31;;;;;;;42.65;22.25;;;;;;;-142.57;100.00;55517.16;5030164;28;20112;-85
2024/01/24 00:09:57;;;;;;;41.38;22.92;;;;;;;-142.57;100.00;55527.28;5027682;28;20163;-84
2024/01/24 00:12:24;;;;;;;46.97;24.23;;;;;;;-142.57;100.00;55567.69;5033928;28;20033;-85
2024/01/24 00:14:51;;;;;;;41.40;21.92;;;;;;;-142.57;100.00;55616.16;5023326;28;20494;-85
2024/01/24 00:17:18;;;;;;;39.10;22.75;;;;;;;-142.57;100.00;55583.84;5033657;28;20029;-85
2024/01/24 00:19:44;;;;;;;45.22;25.35;;;;;;;-142.57;100.00;55559.59;5028593;28;20061;-84
2024/01/24 00:22:14;;;;;;;44.60;22.90;;;;;;;-142.57;100.00;55535.34;5046679;28;20198;-85
2024/01/24 00:24:42;;;;;;;41.20;23.42;;;;;;;-142.57;100.00;55575.75;5033592;28;20037;-85
2024/01/24 00:27:08;;;;;;;36.70;21.75;;;;;;;-142.57;100.00;55527.28;5033599;28;20044;-85
2024/01/24 00:29:34;;;;;;;41.22;22.65;;;;;;;-142.57;100.00;55511.09;5033149;28;20033;-83
2024/01/24 00:32:01;;;;;;;43.25;22.00;;;;;;;-142.57;100.00;55515.16;5030661;28;20101;-84
2024/01/24 00:34:28;;;;;;;42.17;22.30;;;;;;;-142.57;100.00;55539.38;5033237;28;20118;-85
2024/01/24 00:36:55;;;;;;;42.33;22.48;;;;;;;-142.57;100.00;55551.50;5020311;28;20033;-82
2024/01/24 00:39:21;;;;;;;46.75;22.45;;;;;;;-142.57;100.00;55575.75;5033283;28;20026;-83
2024/01/24 00:41:48;;;;;;;37.95;21.08;;;;;;;-142.57;100.00;55620.22;5031691;28;20040;-83
2024/01/24 00:44:14;;;;;;;42.33;21.60;;;;;;;-142.57;100.00;55600.00;5031735;28;20569;-82
2024/01/24 00:46:41;;;;;;;38.13;19.67;;;;;;;-142.57;100.00;55525.25;5032107;28;20029;-83
2024/01/24 00:49:09;;;;;;;35.30;19.80;;;;;;;-142.57;100.00;55535.34;5033302;28;20033;-85
2024/01/24 00:51:36;;;;;;;35.28;19.05;;;;;;;-142.57;100.00;55561.63;5032304;28;20030;-84
2024/01/24 00:54:04;;;;;;;39.55;19.30;;;;;;;-142.57;100.00;55559.59;5033183;28;20047;-78
2024/01/24 00:56:30;;;;;;;38.20;19.73;;;;;;;-142.57;100.00;55563.63;5031635;28;20063;-78
2024/01/24 00:58:56;;;;;;;39.78;19.48;;;;;;;-142.57;100.00;55561.63;5033082;28;20422;-78
2024/01/24 01:01:22;;;;;;;40.25;20.73;;;;;;;-142.57;100.00;55589.91;5032251;28;20045;-81
2024/01/24 01:03:48;;;;;;;41.47;20.92;;;;;;;-142.57;100.00;55591.91;5028028;28;20041;-77
2024/01/24 01:06:13;;;;;;;35.95;20.40;;;;;;;-142.57;100.00;55521.22;5030315;28;20453;-78
2024/01/24 01:08:39;;;;;;;43.35;19.92;;;;;;;-142.57;100.00;55539.38;5035939;28;20034;-80
2024/01/24 01:11:05;;;;;;;36.22;18.23;;;;;;;-142.57;100.00;55498.97;5031717;28;20029;-79
2024/01/24 01:13:33;;;;;;;33.65;17.95;;;;;;;-142.57;100.00;55511.09;5031705;28;20037;-79
2024/01/24 01:15:58;;;;;;;32.10;16.33;;;;;;;-142.57;100.00;55523.22;5031931;28;20034;-78
2024/01/24 01:18:24;;;;;;;37.45;17.75;;;;;;;-142.57;100.00;55519.19;5032258;28;20372;-78
2024/01/24 01:20:50;;;;;;;30.60;16.65;;;;;;;-142.57;100.00;55525.25;5032438;28;20421;-76
2024/01/24 01:23:16;;;;;;;29.30;16.63;;;;;;;-142.57;100.00;55519.19;5032261;28;20041;-76
2024/01/24 01:25:42;;;;;;;31.67;16.75;;;;;;;-142.57;100.00;55507.06;5032251;28;20026;-77
2024/01/24 01:28:07;;;;;;;39.47;18.05;;;;;;;-142.57;100.00;55511.09;5032350;28;20033;-79
2024/01/24 01:30:33;;;;;;;34.78;17.63;;;;;;;-142.57;100.00;55498.97;5032721;28;20043;-78
2024/01/24 01:32:59;;;;;;;29.95;16.25;;;;;;;-142.57;100.00;55486.84;5031726;28;20041;-79
2024/01/24 01:35:26;;;;;;;33.92;16.17;;;;;;;-142.57;100.00;55503.03;5031541;28;20068;-77
2024/01/24 01:37:51;;;;;;;31.65;16.63;;;;;;;-142.57;100.00;55551.50;5026871;28;20029;-78
2024/01/24 01:40:17;;;;;;;29.88;16.50;;;;;;;-142.57;100.00;55503.03;5031527;28;20436;-77
2024/01/24 01:42:44;;;;;;;30.85;16.80;;;;;;;-142.57;100.00;55474.72;5032228;28;20513;-79
2024/01/24 01:45:10;;;;;;;37.60;18.08;;;;;;;-142.57;100.00;55482.81;5032052;28;20030;-79
2024/01/24 01:47:39;;;;;;;36.75;17.70;;;;;;;-142.57;100.00;55458.56;5020716;28;20040;-77
2024/01/24 01:50:10;;;;;;;37.70;18.30;;;;;;;-142.57;100.00;55452.50;5032255;28;20030;-76
2024/01/24 01:52:36;;;;;;;32.15;17.83;;;;;;;-142.57;100.00;55474.72;5030630;28;20544;-76
2024/01/24 01:55:04;;;;;;;40.08;18.58;;;;;;;-142.57;100.00;55460.59;5030408;28;20399;-78
2024/01/24 01:57:31;;;;;;;36.70;19.92;;;;;;;-142.57;100.00;55440.38;5031351;28;20120;-78
2024/01/24 01:59:58;;;;;;;38.65;19.38;;;;;;;-142.57;100.00;55442.41;5031893;28;20067;-78
2024/01/24 02:02:23;;;;;;;41.17;19.45;;;;;;;-142.57;100.00;55434.31;5032142;28;20029;-76
2024/01/24 02:04:49;;;;;;;35.72;19.77;;;;;;;-142.57;100.00;55430.28;5031105;28;20043;-79
2024/01/24 02:07:15;;;;;;;33.10;18.33;;;;;;;-142.57;100.00;55430.28;5030508;28;20040;-77
2024/01/24 02:09:41;;;;;;;38.67;20.25;;;;;;;-142.57;100.00;55422.22;5029251;28;20083;-78
2024/01/24 02:12:07;;;;;;;40.70;20.98;;;;;;;-142.57;100.00;55450.50;5032472;28;20040;-79
2024/01/24 02:14:33;;;;;;;44.15;20.77;;;;;;;-142.57;100.00;55430.28;5033816;28;20034;-78
2024/01/24 02:16:59;;;;;;;37.53;20.02;;;;;;;-142.57;100.00;55492.91;5022769;28;20030;-78
2024/01/24 02:19:25;;;;;;;35.13;19.25;;;;;;;-142.57;100.00;55472.72;5039915;28;20038;-79
2024/01/24 02:21:51;;;;;;;38.22;20.27;;;;;;;-142.57;100.00;55515.16;5042203;28;20075;-76
2024/01/24 02:24:17;;;;;;;37.75;19.50;;;;;;;-142.57;100.00;55462.63;5042502;28;20033;-78
2024/01/24 02:26:43;;;;;;;36.65;18.90;;;;;;;-142.57;100.00;55486.84;5043640;28;20502;-78
2024/01/24 02:29:11;;;;;;;37.42;18.13;;;;;;;-142.57;100.00;55490.91;5041805;28;20034;-77
2024/01/24 02:31:37;;;;;;;34.13;18.48;;;;;;;-142.57;100.00;55478.78;5036735;28;20091;-77
2024/01/24 02:34:03;;;;;;;39.83;18.48;;;;;;;-142.57;100.00;55523.22;5036825;28;20033;-77
2024/01/24 02:36:29;;;;;;;33.97;18.27;;;;;;;-142.57;100.00;55525.25;5036676;28;20029;-77
2024/01/24 02:38:55;;;;;;;33.67;17.80;;;;;;;-142.57;100.00;55537.38;5036781;28;20486;-78
2024/01/24 02:41:21;;;;;;;31.75;18.40;;;;;;;-142.57;100.00;55543.44;5042550;28;20045;-78
2024/01/24 02:43:47;;;;;;;33.17;18.05;;;;;;;-142.57;100.00;55533.31;5047774;28;20041;-79
2024/01/24 02:46:13;;;;;;;35.03;18.77;;;;;;;-142.57;100.00;55579.81;5060278;28;20009;-76
2024/01/24 02:48:38;;;;;;;31.58;17.58;;;;;;;-142.57;100.00;55498.97;5054877;28;20116;-78
2024/01/24 02:51:04;;;;;;;31.77;18.30;;;;;;;-142.57;100.00;55533.31;5037895;28;20033;-78
2024/01/24 02:53:30;;;;;;;29.95;16.45;;;;;;;-142.57;100.00;55527.28;5037160;28;20499;-78
2024/01/24 02:55:55;;;;;;;36.70;17.23;;;;;;;-142.57;100.00;55482.81;5036013;28;20030;-77
2024/01/24 02:58:21;;;;;;;31.00;16.55;;;;;;;-142.57;100.00;55470.69;5035756;28;20029;-77
2024/01/24 03:00:47;;;;;;;33.10;17.40;;;;;;;-142.57;100.00;55511.09;5035735;28;20391;-80
2024/01/24 03:03:13;;;;;;;29.63;15.55;;;;;;;-142.57;100.00;55519.19;5035437;28;20029;-77
2024/01/24 03:05:39;;;;;;;28.23;15.27;;;;;;;-142.57;100.00;55498.97;5035901;28;20072;-78
2024/01/24 03:08:06;;;;;;;27.10;15.25;;;;;;;-142.57;100.00;55466.66;5041594;28;20043;-77
2024/01/24 03:10:33;;;;;;;28.77;16.80;;;;;;;-142.57;100.00;55474.72;5035905;28;20037;-78
2024/01/24 03:13:00;;;;;;;31.33;15.52;;;;;;;-142.57;100.00;55468.69;5046549;28;20045;-79
2024/01/24 03:15:26;;;;;;;28.80;16.40;;;;;;;-142.57;100.00;55462.63;5041577;28;20064;-76
2024/01/24 03:17:52;;;;;;;28.42;16.88;;;;;;;-142.57;100.00;55505.03;5034673;28;20422;-76
2024/01/24 03:20:20;;;;;;;29.67;16.83;;;;;;;-142.57;100.00;55450.50;5031645;28;20060;-78
2024/01/24 03:22:46;;;;;;;31.60;16.73;;;;;;;-142.57;100.00;55490.91;5031651;28;20113;-78
2024/01/24 03:25:15;;;;;;;28.67;16.38;;;;;;;-142.57;100.00;55480.78;5034970;28;20112;-77
2024/01/24 03:27:43;;;;;;;32.03;17.53;;;;;;;-142.57;100.00;55474.72;5020477;28;20026;-78
2024/01/24 03:30:09;;;;;;;30.52;16.05;;;;;;;-142.57;100.00;55480.78;5034885;28;20037;-77
2024/01/24 03:32:35;;;;;;;33.63;17.60;;;;;;;-142.57;100.00;55503.03;5028303;28;20034;-76
2024/01/24 03:35:01;;;;;;;32.70;15.98;;;;;;;-142.57;100.00;55450.50;5035150;28;20029;-77
2024/01/24 03:37:26;;;;;;;30.95;16.58;;;;;;;-142.57;100.00;55450.50;5034196;28;20037;-78
2024/01/24 03:39:52;;;;;;;30.85;15.63;;;;;;;-142.57;100.00;55488.88;5032504;28;20033;-77
2024/01/24 03:42:18;;;;;;;37.00;15.95;;;;;;;-142.57;100.00;55507.06;5034391;28;20055;-77
2024/01/24 03:44:44;;;;;;;29.05;16.02;;;;;;;-142.57;100.00;55517.16;5033881;28;20033;-78
2024/01/24 03:47:09;;;;;;;35.75;16.23;;;;;;;-142.57;100.00;55490.91;5034038;28;20030;-78
2024/01/24 03:49:35;;;;;;;30.17;15.85;;;;;;;-142.57;100.00;55511.09;5026382;28;20461;-76
2024/01/24 03:52:02;;;;;;;30.95;16.20;;;;;;;-142.57;100.00;55446.44;5028838;28;20040;-78
2024/01/24 03:54:27;;;;;;;28.58;16.15;;;;;;;-142.57;100.00;55393.91;5033267;28;20029;-78
2024/01/24 03:56:53;;;;;;;36.47;17.20;;;;;;;-142.57;100.00;55434.31;5030090;28;20071;-79
2024/01/24 03:59:18;;;;;;;32.38;16.13;;;;;;;-142.57;100.00;55498.97;5032844;28;20037;-78
2024/01/24 04:01:44;;;;;;;27.60;15.15;;;;;;;-142.57;100.00;55428.25;5033567;28;20044;-79
2024/01/24 04:04:09;;;;;;;28.20;15.43;;;;;;;-142.57;100.00;55454.53;5034207;28;20072;-78
2024/01/24 04:06:37;;;;;;;34.90;16.27;;;;;;;-142.57;100.00;55397.97;5041690;28;20081;-77
2024/01/24 04:09:03;;;;;;;27.15;14.80;;;;;;;-142.57;100.00;55438.38;5036357;28;20036;-78
2024/01/24 04:11:29;;;;;;;26.33;15.07;;;;;;;-142.57;100.00;55430.28;5042570;28;20104;-79
2024/01/24 04:13:56;;;;;;;28.63;15.05;;;;;;;-142.57;100.00;55381.81;5040769;28;20045;-79
2024/01/24 04:16:22;;;;;;;25.45;14.85;;;;;;;-142.57;100.00;55434.31;5043028;28;20079;-78
2024/01/24 04:18:50;;;;;;;30.20;14.68;;;;;;;-142.57;100.00;55416.16;5038297;28;20048;-79
2024/01/24 04:21:16;;;;;;;26.95;14.32;;;;;;;-142.57;100.00;55410.09;5038789;28;20029;-77
2024/01/24 04:23:41;;;;;;;31.55;14.63;;;;;;;-142.57;100.00;55424.22;5037707;28;20079;-78
2024/01/24 04:26:07;;;;;;;25.90;14.75;;;;;;;-142.57;100.00;55422.22;5035825;28;20486;-79
2024/01/24 04:28:33;;;;;;;29.02;14.85;;;;;;;-142.57;100.00;55454.53;5035562;28;20056;-78
2024/01/24 04:30:58;;;;;;;25.50;14.77;;;;;;;-142.57;100.00;55462.63;5035527;28;20025;-76
2024/01/24 04:33:24;;;;;;;29.88;15.07;;;;;;;-142.57;100.00;55466.66;5045218;28;20033;-78
2024/01/24 04:35:50;;;;;;;30.23;14.88;;;;;;;-142.57;100.00;55412.09;5046122;28;20048;-77
2024/01/24 04:38:16;;;;;;;26.42;14.48;;;;;;;-142.57;100.00;55424.22;5035912;28;20124;-77
2024/01/24 04:40:44;;;;;;;31.60;16.08;;;;;;;-142.57;100.00;55434.31;5039814;28;20075;-77
2024/01/24 04:43:10;;;;;;;31.35;15.95;;;;;;;-142.57;100.00;55377.75;5045718;28;20060;-77
2024/01/24 04:45:35;;;;;;;31.75;15.93;;;;;;;-142.57;100.00;55418.16;5044172;28;20073;-77
2024/01/24 04:48:01;;;;;;;31.08;15.15;;;;;;;-142.57;100.00;55406.03;5034557;28;20458;-77
2024/01/24 04:50:26;;;;;;;31.48;16.25;;;;;;;-142.57;100.00;55448.47;5021930;28;20065;-78
2024/01/24 04:52:52;;;;;;;27.80;14.63;;;;;;;-142.57;100.00;55462.63;5012470;28;20475;-78
2024/01/24 04:55:18;;;;;;;31.10;15.30;;;;;;;-142.57;100.00;55424.22;5033131;28;20033;-76
2024/01/24 04:57:44;;;;;;;33.20;16.55;;;;;;;-142.57;100.00;55432.31;5034045;28;20395;-79
2024/01/24 05:00:11;;;;;;;31.25;15.88;;;;;;;-142.57;100.00;55444.44;5031500;28;20398;-77
2024/01/24 05:02:37;;;;;;;36.53;17.08;;;;;;;-142.57;100.00;55452.50;5034092;28;20064;-76
2024/01/24 05:05:06;;;;;;;31.15;16.15;;;;;;;-142.57;100.00;55434.31;5033981;28;20060;-77
2024/01/24 05:07:35;;;;;;;31.13;16.75;;;;;;;-142.57;100.00;55408.06;5033885;28;20029;-77
2024/01/24 05:10:02;;;;;;;33.85;17.55;;;;;;;-142.57;100.00;55472.72;5033659;28;20026;-78
2024/01/24 05:12:28;;;;;;;39.65;19.15;;;;;;;-142.57;100.00;55476.75;5033863;28;20041;-78
2024/01/24 05:14:54;;;;;;;34.75;17.85;;;;;;;-142.57;100.00;55440.38;5034282;28;20111;-80
2024/01/24 05:17:19;;;;;;;33.75;17.00;;;;;;;-142.57;100.00;55474.72;5033623;28;20747;-80
2024/01/24 05:19:45;;;;;;;33.85;17.30;;;;;;;-142.57;100.00;55438.38;5033667;28;20083;-79
2024/01/24 05:22:11;;;;;;;34.50;17.75;;;;;;;-142.57;100.00;55474.72;5033906;28;20033;-78
2024/01/24 05:24:36;;;;;;;37.25;18.13;;;;;;;-142.57;100.00;55436.34;5034123;28;20052;-79
2024/01/24 05:27:02;;;;;;;35.50;18.85;;;;;;;-142.57;100.00;55432.31;5033402;28;20029;-79
2024/01/24 05:29:27;;;;;;;32.58;17.77;;;;;;;-142.57;100.00;55434.31;5041118;28;20057;-79
2024/01/24 05:31:53;;;;;;;37.13;18.38;;;;;;;-142.57;100.00;55373.72;5048314;28;20029;-78
2024/01/24 05:34:18;;;;;;;34.85;18.60;;;;;;;-142.57;100.00;55432.31;5040161;28;20117;-79
2024/01/24 05:36:44;;;;;;;38.20;20.52;;;;;;;-142.57;100.00;55418.16;5034235;28;20021;-81
2024/01/24 05:39:10;;;;;;;39.45;19.77;;;;;;;-142.57;100.00;55414.13;5036724;28;20037;-87
2024/01/24 05:41:35;;;;;;;49.38;21.52;;;;;;;-142.57;100.00;55402.00;5051221;28;20025;-78
2024/01/24 05:44:03;;;;;;;46.67;20.67;;;;;;;-142.57;100.00;55420.19;5053419;28;20026;-81
2024/01/24 05:46:28;;;;;;;37.08;19.85;;;;;;;-142.57;100.00;55430.28;5057800;28;20025;-79
2024/01/24 05:48:55;;;;;;;40.70;20.95;;;;;;;-142.57;100.00;55450.50;5049716;28;20087;-82
2024/01/24 05:51:20;;;;;;;38.90;19.85;;;;;;;-142.57;100.00;55402.00;5036803;28;20082;-82
2024/01/24 05:53:46;;;;;;;37.40;20.38;;;;;;;-142.57;100.00;55355.53;5034205;28;20042;-84
2024/01/24 05:56:11;;;;;;;41.38;20.52;;;;;;;-142.57;100.00;55406.03;5041497;28;20040;-83
2024/01/24 05:58:37;;;;;;;36.83;19.75;;;;;;;-142.57;100.00;55426.25;5036300;28;20167;-81
2024/01/24 06:01:05;;;;;;;43.22;21.92;;;;;;;-142.57;100.00;55399.97;5031845;28;20032;-83
2024/01/24 06:03:32;;;;;;;38.88;21.17;;;;;;;-142.57;100.00;55436.34;5032727;28;20123;-83
2024/01/24 06:05:57;;;;;;;38.22;20.55;;;;;;;-142.57;100.00;55414.13;5033798;28;20521;-78
2024/01/24 06:08:23;;;;;;;36.60;20.20;;;;;;;-142.57;100.00;55450.50;5033908;28;20025;-80
2024/01/24 06:10:49;;;;;;;38.58;20.75;;;;;;;-142.57;100.00;55397.97;5034098;28;20108;-83
2024/01/24 06:13:14;;;;;;;43.40;22.05;;;;;;;-142.57;100.00;55369.69;5041144;28;20045;-83
2024/01/24 06:15:40;;;;;;;42.63;20.13;;;;;;;-142.57;100.00;55387.84;5033810;28;20040;-84
2024/01/24 06:18:06;;;;;;;39.22;19.75;;;;;;;-142.57;100.00;55373.72;5020931;28;20048;-80
2024/01/24 06:20:31;;;;;;;38.30;20.00;;;;;;;-142.57;100.00;55397.97;5032979;28;20033;-79
2024/01/24 06:22:57;;;;;;;44.08;20.27;;;;;;;-142.57;100.00;55373.72;5031624;28;20057;-81
2024/01/24 06:25:22;;;;;;;43.10;19.38;;;;;;;-142.57;100.00;55355.53;5032543;28;20033;-76
2024/01/24 06:27:48;;;;;;;43.92;19.60;;;;;;;-142.57;100.00;55414.13;5031701;28;20124;-78
2024/01/24 06:30:14;;;;;;;39.97;18.45;;;;;;;-142.57;100.00;55397.97;5020404;28;20033;-78
2024/01/24 06:32:40;;;;;;;35.92;17.65;;;;;;;-142.57;100.00;55397.97;5030612;28;20030;-82
2024/01/24 06:35:07;;;;;;;32.70;15.35;;;;;;;-142.57;100.00;55404.03;5031994;28;20352;-82
2024/01/24 06:37:33;;;;;;;44.85;16.67;;;;;;;-142.57;100.00;55395.94;5033035;28;20052;-81
2024/01/24 06:39:59;;;;;;;31.85;13.95;;;;;;;-142.57;100.00;55397.97;5032077;28;20033;-80
2024/01/24 06:42:25;;;;;;;52.60;15.82;;;;;;;-142.57;100.00;55402.00;5026560;28;20041;-78
2024/01/24 06:44:50;;;;;;;29.58;14.02;;;;;;;-142.57;100.00;55393.91;5027871;28;20083;-83
2024/01/24 06:47:18;;;;;;;32.67;14.40;;;;;;;-142.57;100.00;55420.19;5036095;28;20025;-83
2024/01/24 06:49:43;;;;;;;33.47;13.77;;;;;;;-142.57;100.00;55383.81;5041458;28;20041;-78
2024/01/24 06:52:09;;;;;;;31.75;14.88;;;;;;;-142.57;100.00;55428.25;5039429;28;20506;-79
2024/01/24 06:54:37;;;;;;;28.35;14.43;;;;;;;-142.57;100.00;55426.25;5038471;28;20064;-82
2024/01/24 06:57:03;;;;;;;34.00;15.43;;;;;;;-142.57;100.00;55414.13;5044247;28;20021;-79
2024/01/24 06:59:32;;;;;;;34.63;15.55;;;;;;;-142.57;100.00;55442.41;5037438;28;20038;-77
2024/01/24 07:01:58;;;;;;;42.45;15.73;;;;;;;-142.57;100.00;55462.63;5030525;28;20461;-82
2024/01/24 07:04:24;;;;;;;41.70;15.43;;;;;;;-142.57;100.00;55426.25;5036620;28;20037;-79
2024/01/24 07:06:50;;;;;;;29.90;15.70;;;;;;;-142.57;100.00;55464.63;5036389;28;20164;-76
2024/01/24 07:09:15;;;;;;;33.53;15.00;;;;;;;-142.57;100.00;55452.50;5035675;28;20045;-78
2024/01/24 07:11:41;;;;;;;33.90;14.48;;;;;;;-142.57;100.00;55454.53;5034658;28;20079;-78
2024/01/24 07:14:07;;;;;;;32.75;15.35;;;;;;;-142.57;100.00;55446.44;5036566;28;20029;-75
2024/01/24 07:16:32;;;;;;;67.57;16.55;;;;;;;-142.57;100.00;55446.44;5036266;28;20025;-77
2024/01/24 07:18:58;;;;;;;34.03;14.55;;;;;;;-142.57;100.00;55454.53;5034758;28;20060;-76
2024/01/24 07:21:25;;;;;;;247.63;24.77;;;;;;;-142.57;100.00;55521.22;5035893;28;20477;-77
2024/01/24 07:23:50;;;;;;;121.32;19.30;;;;;;;-142.57;100.00;55523.22;5035838;28;20034;-77
2024/01/24 07:26:16;;;;;;;184.80;22.60;;;;;;;-142.57;100.00;55535.34;5034313;28;20029;-77
2024/01/24 07:28:41;;;;;;;113.18;20.98;;;;;;;-142.57;100.00;55551.50;5035257;28;20021;-75
2024/01/24 07:31:07;;;;;;;48.50;19.70;;;;;;;-142.57;100.00;55507.06;5035932;28;20037;-76
2024/01/24 07:33:33;;;;;;;184.60;24.38;;;;;;;-142.57;100.00;55547.47;5034226;28;20029;-79
2024/01/24 07:35:58;;;;;;;79.03;20.27;;;;;;;-142.57;100.00;55565.66;5034165;28;20037;-78
2024/01/24 07:38:24;;;;;;;100.30;21.48;;;;;;;-142.57;100.00;55604.03;5035558;28;20088;-80
2024/01/24 07:40:49;;;;;;;46.78;20.52;;;;;;;-142.57;100.00;55632.34;5035454;28;20055;-78
2024/01/24 07:43:15;;;;;;;99.97;20.90;;;;;;;-142.57;100.00;55622.22;5035269;28;20366;-77
2024/01/24 07:45:41;;;;;;;49.45;21.50;;;;;;;-142.57;100.00;55640.41;5035622;28;20039;-80
2024/01/24 07:48:07;;;;;;;160.07;23.30;;;;;;;-142.57;100.00;55753.56;5036824;28;20184;-74
2024/01/24 07:50:33;;;;;;;122.72;25.45;;;;;;;-142.57;100.00;55769.72;5048635;28;20037;-77
2024/01/24 07:52:59;;;;;;;132.10;24.42;;;;;;;-142.57;100.00;55838.44;5040301;28;20390;-79
2024/01/24 07:55:24;;;;;;;39.13;19.27;;;;;;;-142.57;95.45;55846.50;5036165;28;20073;-77
2024/01/24 07:57:51;;;;;;;36.63;20.08;;;;;;;-142.57;95.99;55834.38;5035666;28;20049;-78
2024/01/24 08:00:18;;;;;;;43.05;19.70;;;;;;;-142.57;94.30;55818.22;5035070;28;20041;-79
2024/01/24 08:02:44;;;;;;;66.95;19.63;;;;;;;-142.57;97.17;55854.59;5030429;28;20045;-80
2024/01/24 08:05:12;;;;;;;35.53;19.35;;;;;;;-142.57;91.53;55911.16;5033115;28;20433;-79
2024/01/24 08:07:40;;;;;;;64.15;19.75;;;;;;;-142.57;91.34;56010.19;5034673;28;20065;-81
2024/01/24 08:10:08;;;;;;;55.35;21.15;;;;;;;-142.57;87.75;56004.13;5031438;28;20030;-77
2024/01/24 08:12:39;;;;;;;55.17;20.52;;;;;;;-142.57;83.96;56052.63;5015676;28;20376;-80
2024/01/24 08:15:07;;;;;;;62.20;22.08;;;;;;;-142.57;81.30;56093.03;5033545;28;20053;-83
2024/01/24 08:17:34;;;;;;;43.08;21.55;;;;;;;-142.57;78.92;56024.31;5039419;28;20037;-86
2024/01/24 08:19:59;;;;;;;42.92;22.30;;;;;;;-142.57;81.83;55975.84;5038840;28;20112;-88
2024/01/24 08:22:28;;;;;;;43.22;22.90;;;;;;;-142.57;85.51;55915.22;5038083;28;20517;-86
2024/01/24 08:24:53;;;;;;;45.75;21.60;;;;;;;-142.57;93.43;55870.75;5030391;28;20132;-87
2024/01/24 08:27:19;;;;;;;42.70;22.23;;;;;;;-142.57;93.60;55818.22;5034177;28;20487;-86
2024/01/24 08:29:44;;;;;;;59.67;23.15;;;;;;;-142.57;96.91;55901.06;5036365;28;20049;-85
2024/01/24 08:32:10;;;;;;;76.82;25.25;;;;;;;-142.57;92.47;55895.00;5038009;28;20037;-84
2024/01/24 08:34:35;;;;;;;140.93;28.67;;;;;;;-142.57;93.21;55878.84;5038784;28;20041;-87
2024/01/24 08:37:01;;;;;;;102.60;25.98;;;;;;;-142.57;95.06;55927.34;5035088;28;20115;-85
2024/01/24 08:39:27;;;;;;;45.40;24.13;;;;;;;-142.57;92.71;55870.75;5022220;28;20033;-84
2024/01/24 08:41:53;;;;;;;68.13;25.33;;;;;;;-142.57;97.47;55826.31;5029452;28;20040;-82
2024/01/24 08:44:19;;;;;;;118.80;26.98;;;;;;;-142.57;100.00;55890.97;5039827;28;20045;-85
2024/01/24 08:46:46;;;;;;;93.75;23.83;;;;;;;-142.57;95.60;55959.66;5040929;28;20037;-87
2024/01/24 08:49:12;;;;;;;41.00;23.00;;;;;;;-142.57;89.26;55977.84;5004474;28;20041;-87
2024/01/24 08:51:39;;;;;;;55.08;24.40;;;;;;;-142.57;87.47;56044.53;5036801;28;20091;-86
2024/01/24 08:54:04;;;;;;;52.35;23.23;;;;;;;-142.57;85.75;56022.31;5030397;28;20034;-88
2024/01/24 08:56:30;;;;;;;54.25;23.80;;;;;;;-142.57;85.02;55971.78;5026968;28;20030;-87
2024/01/24 08:58:55;;;;;;;110.40;27.52;;;;;;;-142.57;87.14;55983.91;5035785;28;20786;-86
2024/01/24 09:01:21;;;;;;;49.85;23.40;;;;;;;-142.57;85.20;55987.94;5029817;28;20112;-85
2024/01/24 09:03:48;;;;;;;40.63;24.05;;;;;;;-142.57;85.42;55996.03;5034437;28;20403;-87
2024/01/24 09:06:13;;;;;;;93.32;27.65;;;;;;;-142.57;89.64;56024.31;5034266;28;20033;-88
2024/01/24 09:08:45;;;;;;;91.85;28.48;;;;;;;-142.57;87.98;56056.66;5024335;28;20040;-89
2024/01/24 09:11:10;;;;;;;43.28;20.20;;;;;;;-142.57;84.44;56105.16;5038014;28;20033;-89
2024/01/24 09:13:36;;;;;;;71.50;28.80;;;;;;;-142.57;85.15;56076.88;5030485;28;20037;-86
2024/01/24 09:16:01;;;;;;;56.70;28.15;;;;;;;-142.57;84.24;56068.78;5042679;28;20026;-86
2024/01/24 09:18:27;;;;;;;59.40;30.73;;;;;;;-142.57;86.18;56048.56;5030373;28;20112;-83
2024/01/24 09:20:53;;;;;;;72.45;30.60;;;;;;;-142.57;84.60;56133.44;5026509;28;20073;-81
2024/01/24 09:23:18;;;;;;;98.63;33.30;;;;;;;-142.57;85.25;56125.38;5027182;28;20041;-80
2024/01/24 09:25:44;;;;;;;60.13;32.92;;;;;;;-142.57;84.18;56107.19;5027784;28;20108;-79
2024/01/24 09:28:10;;;;;;;76.95;34.28;;;;;;;-142.57;85.45;56133.44;5023694;28;20378;-78
2024/01/24 09:30:36;;;;;;;67.40;36.17;;;;;;;-142.57;85.14;56105.16;5028497;28;20201;-79
2024/01/24 09:33:03;;;;;;;65.22;36.60;;;;;;;-142.57;85.89;56111.22;5028364;28;20030;-80
2024/01/24 09:35:32;;;;;;;68.60;38.47;;;;;;;-142.57;86.78;56072.81;5024910;28;20030;-80
2024/01/24 09:37:57;;;;;;;71.78;38.08;;;;;;;-142.57;89.90;56052.63;5031535;28;20163;-82
2024/01/24 09:40:23;;;;;;;65.18;37.83;;;;;;;-142.57;89.63;56066.75;5028453;28;20116;-82
2024/01/24 09:42:49;;;;;;;76.18;40.25;;;;;;;-142.57;88.29;56107.19;5024626;28;20052;-77
2024/01/24 09:45:17;;;;;;;67.25;39.53;;;;;;;-142.57;89.69;56105.16;5029888;28;20037;-80
2024/01/24 09:47:45;;;;;;;77.18;42.72;;;;;;;-142.57;88.64;56117.28;5030838;28;20354;-80
2024/01/24 09:50:11;;;;;;;84.60;45.88;;;;;;;-142.57;89.75;56101.13;5031881;28;20083;-79
2024/01/24 09:52:38;;;;;;;99.13;47.17;;;;;;;-142.57;92.52;56076.88;5031674;28;20060;-80
2024/01/24 09:55:07;;;;;;;72.55;43.63;;;;;;;-142.57;91.42;56111.22;5030656;28;20033;-84
2024/01/24 09:57:33;;;;;;;98.47;45.95;;;;;;;-142.57;90.60;56129.41;5028816;28;20479;-80
2024/01/24 09:59:59;;;;;;;128.90;49.33;;;;;;;-142.57;88.77;56135.47;5030887;28;20095;-80
2024/01/24 10:02:26;;;;;;;91.82;47.50;;;;;;;-142.57;89.72;56097.06;5031888;28;20036;-78
2024/01/24 10:04:52;;;;;;;103.00;48.78;;;;;;;-142.57;89.83;56109.19;5004770;28;20134;-80
2024/01/24 10:07:18;;;;;;;113.00;52.40;;;;;;;-142.57;89.90;56129.41;5004765;28;20127;-83
2024/01/24 10:09:44;;;;;;;97.18;49.05;;;;;;;-142.57;88.63;56226.41;5028401;28;20463;-82
2024/01/24 10:12:10;;;;;;;83.47;53.65;;;;;;;-142.57;87.26;56175.88;5029827;28;20124;-80
2024/01/24 10:14:35;;;;;;;374.80;139.15;;;;;;;-142.57;87.37;56258.72;5027801;28;20026;-81
2024/01/24 10:17:05;;;;;;;352.95;139.80;;;;;;;-142.57;84.88;56254.69;5032013;28;20033;-80
2024/01/24 10:19:31;;;;;;;81.88;49.63;;;;;;;-142.57;84.48;56232.47;5025484;28;20037;-80
2024/01/24 10:21:56;;;;;;;106.97;55.45;;;;;;;-142.57;85.52;56202.16;5027357;28;20046;-81
2024/01/24 10:24:23;;;;;;;131.80;58.38;;;;;;;-142.57;86.26;56214.28;5027888;28;20033;-81
2024/01/24 10:26:48;;;;;;;108.05;53.38;;;;;;;-142.57;86.82;56218.31;5032486;28;20409;-79
2024/01/24 10:29:14;;;;;;;121.68;55.58;;;;;;;-142.57;85.34;56262.78;5031033;28;20536;-83
2024/01/24 10:31:41;;;;;;;109.15;55.55;;;;;;;-142.57;83.65;56287.03;5033091;28;20437;-80
2024/01/24 10:34:06;;;;;;;87.68;50.95;;;;;;;-142.57;82.45;56282.97;5021855;28;20033;-84
2024/01/24 10:36:33;;;;;;;92.55;50.00;;;;;;;-142.57;84.22;56291.06;5034706;28;20032;-82
2024/01/24 10:39:05;;;;;;;88.15;50.70;;;;;;;-142.57;83.35;56323.41;5035171;28;20462;-81
2024/01/24 10:41:35;;;;;;;85.03;51.38;;;;;;;-142.57;83.46;56276.91;5035329;28;20479;-84
2024/01/24 10:44:09;;;;;;;80.53;49.40;;;;;;;-142.57;83.52;56282.97;5031864;28;20029;-81
2024/01/24 10:46:36;;;;;;;82.55;50.25;;;;;;;-142.57;83.29;56262.78;5027923;28;20430;-84
2024/01/24 10:49:06;;;;;;;92.32;49.10;;;;;;;-142.57;84.67;56278.94;5028194;28;20482;-81